Chermoz, Russia
Current Conditions -  °F | °C
As of 2:00 PM on Monday 24 Nov 2014 (Local Time) from USPP Reporting Station
Clear Clear  
Wind Chill: -15°   Ceiling: Unl
Heat Index:   Visibility: 6mi
Dew Point: -6°   Wind: 11mph
Humidity: 72%   Direction: 240°WSW
Pressure: 30.65"   Gusts: NA
Location:  58.78°N, 56.16°E
Report Text: USPP 240900Z 24005MPS CAVOK M17/M21 Q1038 21090060 NOSIG RMKQFE768/1024
Loading
Personal Weather Stations






























Interactive Weather Map New forecast layout! Learn more

10-Day Weather Forecast

Advertisements
Track Severe Weather on mobile